Time;durP1;ratioP1;P1;durP2;ratioP2;P2;SDS_P1;SDS_P2;PMS_P1;PMS_P2;Temp;Humidity;BMP_temperature;BMP_pressure;BME280_temperature;BME280_humidity;BME280_pressure;Samples;Min_cycle;Max_cycle;Signal;HPM_P1;HPM_P2
2022/07/18 00:01:40;;;;;;;6.90;2.90;;;;;;;16.74;49.62;100846.94;4968478;28;20701;-67
2022/07/18 00:04:05;;;;;;;5.30;3.50;;;;;;;16.81;49.76;100847.31;4975113;28;20611;-67
2022/07/18 00:06:31;;;;;;;15.43;3.27;;;;;;;16.81;49.37;100852.53;4982828;28;20184;-67
2022/07/18 00:08:56;;;;;;;10.77;2.90;;;;;;;16.83;49.11;100848.06;4974302;28;20287;-67
2022/07/18 00:11:22;;;;;;;12.03;3.03;;;;;;;16.74;50.20;100846.94;4957632;28;20314;-67
2022/07/18 00:13:47;;;;;;;13.23;3.17;;;;;;;16.74;50.12;100852.94;4962189;28;20537;-67
2022/07/18 00:16:13;;;;;;;10.83;2.70;;;;;;;16.67;50.98;100849.13;4972659;28;20267;-67
2022/07/18 00:18:38;;;;;;;11.67;2.70;;;;;;;16.65;51.42;100840.59;4972607;28;20245;-67
2022/07/18 00:21:04;;;;;;;11.57;2.73;;;;;;;16.66;51.38;100847.47;4967350;28;20232;-67
2022/07/18 00:23:29;;;;;;;7.87;2.80;;;;;;;16.56;52.48;100849.00;4967498;28;20663;-67
2022/07/18 00:25:55;;;;;;;7.50;2.40;;;;;;;16.61;52.44;100852.97;4972893;28;20618;-67
2022/07/18 00:28:20;;;;;;;10.30;3.53;;;;;;;16.59;52.90;100849.63;4971868;28;20222;-68
2022/07/18 00:30:46;;;;;;;10.83;3.00;;;;;;;16.64;52.53;100845.91;4983815;28;20407;-68
2022/07/18 00:33:11;;;;;;;7.03;2.50;;;;;;;16.53;53.56;100846.63;4975063;28;20258;-67
2022/07/18 00:35:36;;;;;;;10.73;2.80;;;;;;;16.46;54.50;100846.22;4974460;28;20187;-67
2022/07/18 00:38:02;;;;;;;7.60;2.97;;;;;;;16.40;54.94;100847.47;4972354;28;20255;-67
2022/07/18 00:40:28;;;;;;;6.40;2.53;;;;;;;16.43;54.75;100844.66;4964286;28;20231;-67
2022/07/18 00:42:54;;;;;;;6.70;2.63;;;;;;;16.38;54.51;100843.31;4977662;28;20295;-67
2022/07/18 00:45:19;;;;;;;7.33;2.73;;;;;;;16.39;54.59;100838.00;4973043;28;20263;-67
2022/07/18 00:47:45;;;;;;;8.20;2.90;;;;;;;16.36;54.50;100840.81;4976291;28;20188;-67
2022/07/18 00:50:10;;;;;;;8.13;2.67;;;;;;;16.43;54.13;100839.47;4966275;28;20287;-67
2022/07/18 00:52:36;;;;;;;7.33;2.40;;;;;;;16.34;54.36;100834.06;4974457;28;20200;-67
2022/07/18 00:55:04;;;;;;;6.53;2.70;;;;;;;16.25;55.37;100843.31;4976091;28;20180;-67
2022/07/18 00:57:29;;;;;;;5.00;2.13;;;;;;;16.14;55.86;100838.81;4975478;28;20546;-67
2022/07/18 01:02:40;;;;;;;4.70;2.00;;;;;;;16.18;55.99;100844.66;4965063;28;20255;-67
2022/07/18 01:05:06;;;;;;;7.03;2.27;;;;;;;16.13;56.26;100839.75;4971346;28;20652;-67
2022/07/18 01:07:33;;;;;;;3.97;1.80;;;;;;;16.07;56.37;100842.75;4972099;28;20236;-67
2022/07/18 01:09:59;;;;;;;3.40;1.67;;;;;;;16.03;56.39;100842.13;4970355;28;20695;-67
2022/07/18 01:12:25;;;;;;;9.17;2.00;;;;;;;16.00;56.95;100839.75;4952627;28;20311;-67
2022/07/18 01:14:51;;;;;;;2.20;1.50;;;;;;;15.96;57.08;100839.09;4975647;28;20192;-67
2022/07/18 01:17:18;;;;;;;4.07;1.60;;;;;;;15.92;57.36;100831.63;4975524;28;20295;-67
2022/07/18 01:19:44;;;;;;;6.60;2.30;;;;;;;15.84;57.87;100839.91;4974915;28;20274;-66
2022/07/18 01:22:10;;;;;;;6.60;2.20;;;;;;;15.81;57.33;100835.72;4980149;28;20223;-67
2022/07/18 01:24:37;;;;;;;2.63;1.50;;;;;;;15.79;57.65;100834.97;4975151;28;20187;-67
2022/07/18 01:27:02;;;;;;;5.67;1.87;;;;;;;15.88;57.19;100840.53;4990320;28;20200;-67
2022/07/18 01:29:28;;;;;;;3.77;1.73;;;;;;;15.82;57.73;100841.75;4973623;28;20242;-66
2022/07/18 01:31:53;;;;;;;4.37;1.77;;;;;;;15.80;58.06;100840.97;4982381;28;20231;-67
2022/07/18 01:34:22;;;;;;;3.67;1.97;;;;;;;15.67;59.28;100843.53;4967054;28;20319;-67
2022/07/18 01:36:48;;;;;;;2.97;2.00;;;;;;;15.67;59.92;100838.38;4970997;28;20639;-67
2022/07/18 01:39:13;;;;;;;4.13;2.20;;;;;;;15.63;60.33;100834.31;4988051;28;20247;-67
2022/07/18 01:41:40;;;;;;;3.03;2.20;;;;;;;15.68;60.20;100837.44;4976772;28;20612;-67
2022/07/18 01:44:05;;;;;;;4.63;1.97;;;;;;;15.67;59.79;100832.34;4977626;28;20194;-67
2022/07/18 01:46:31;;;;;;;3.87;2.30;;;;;;;15.76;59.71;100835.16;4974329;28;20180;-67
2022/07/18 01:48:56;;;;;;;2.67;1.97;;;;;;;15.75;59.54;100835.25;4974622;28;20187;-67
2022/07/18 01:51:21;;;;;;;4.57;2.10;;;;;;;15.61;60.61;100831.78;4974902;28;20230;-67
2022/07/18 01:53:59;;;;;;;4.20;2.47;;;;;;;15.63;59.88;100835.13;4979955;28;20208;-67
2022/07/18 01:56:25;;;;;;;3.80;2.03;;;;;;;15.72;59.80;100832.88;4973615;28;20188;-67
2022/07/18 01:58:50;;;;;;;3.27;2.30;;;;;;;15.61;60.34;100825.78;4974430;28;20720;-67
2022/07/18 02:01:16;;;;;;;4.17;2.20;;;;;;;15.55;60.81;100846.94;4973938;28;20227;-66
2022/07/18 02:03:42;;;;;;;3.63;2.40;;;;;;;15.50;61.19;100842.03;4980219;28;20228;-67
2022/07/18 02:06:07;;;;;;;3.77;2.00;;;;;;;15.46;61.47;100840.56;4974159;28;20204;-67
2022/07/18 02:08:32;;;;;;;5.60;2.00;;;;;;;15.43;61.76;100835.56;4972728;28;20228;-68
2022/07/18 02:10:57;;;;;;;3.00;2.20;;;;;;;15.47;61.70;100840.47;4962746;28;20223;-67
2022/07/18 02:13:23;;;;;;;4.07;2.30;;;;;;;15.47;61.95;100837.88;4978059;28;20382;-67
2022/07/18 02:15:48;;;;;;;4.87;2.27;;;;;;;15.41;61.78;100835.66;4973254;28;20635;-67
2022/07/18 02:18:14;;;;;;;2.63;2.20;;;;;;;15.40;62.38;100840.94;4974342;28;20653;-67
2022/07/18 02:20:39;;;;;;;4.47;2.70;;;;;;;15.36;62.75;100834.31;4968281;28;20234;-66
2022/07/18 02:23:05;;;;;;;4.37;2.20;;;;;;;15.27;62.93;100839.13;4989136;28;20266;-66
2022/07/18 02:25:30;;;;;;;3.00;2.40;;;;;;;15.21;63.62;100833.47;4972752;28;20176;-66
2022/07/18 02:27:55;;;;;;;3.70;1.90;;;;;;;15.18;63.49;100837.09;4974247;28;20183;-66
2022/07/18 02:30:21;;;;;;;6.00;2.23;;;;;;;15.15;63.95;100832.94;4960008;28;20275;-66
2022/07/18 02:32:47;;;;;;;2.83;2.03;;;;;;;15.19;63.74;100827.59;4978417;28;20650;-66
2022/07/18 02:35:12;;;;;;;4.00;2.33;;;;;;;15.16;64.14;100832.00;4973995;28;20545;-66
2022/07/18 02:37:40;;;;;;;4.90;2.27;;;;;;;15.01;64.81;100822.63;4974142;28;20861;-66
2022/07/18 02:40:09;;;;;;;6.63;2.30;;;;;;;14.99;64.50;100827.88;4963530;28;20555;-67
2022/07/18 02:42:35;;;;;;;4.63;2.00;;;;;;;14.98;64.66;100826.22;4988074;28;20647;-66
2022/07/18 02:45:00;;;;;;;4.80;2.07;;;;;;;15.03;64.39;100817.34;4972764;28;20187;-66
2022/07/18 02:47:26;;;;;;;2.20;2.00;;;;;;;14.96;64.56;100817.72;4973782;28;20192;-66
2022/07/18 02:49:51;;;;;;;2.97;1.90;;;;;;;14.97;63.44;100823.72;4973437;28;20176;-67
2022/07/18 02:52:16;;;;;;;3.63;1.80;;;;;;;14.94;63.60;100816.97;4978914;28;20663;-67
2022/07/18 02:54:42;;;;;;;3.60;2.40;;;;;;;14.90;65.02;100823.28;4973732;28;20184;-67
2022/07/18 02:57:07;;;;;;;5.17;2.20;;;;;;;14.87;65.45;100833.81;4979901;28;20187;-68
2022/07/18 02:59:33;;;;;;;4.13;2.10;;;;;;;14.85;65.70;100830.50;4975506;28;20602;-68
2022/07/18 03:01:59;;;;;;;3.03;1.80;;;;;;;14.85;65.74;100835.66;4978203;28;20218;-69
2022/07/18 03:04:25;;;;;;;4.07;1.80;;;;;;;14.80;66.09;100830.75;4986022;28;20653;-68
2022/07/18 03:06:51;;;;;;;3.23;2.10;;;;;;;14.80;66.31;100837.72;4970537;28;20192;-68
2022/07/18 03:09:17;;;;;;;6.53;2.07;;;;;;;14.72;66.61;100834.75;4986597;28;20249;-68
2022/07/18 03:11:42;;;;;;;2.87;2.00;;;;;;;14.67;66.81;100835.88;4962855;28;20232;-68
2022/07/18 03:14:08;;;;;;;2.13;1.50;;;;;;;14.57;67.30;100832.09;4975476;28;20203;-68
2022/07/18 03:16:34;;;;;;;5.40;1.80;;;;;;;14.66;66.96;100841.13;4971794;28;20227;-67
2022/07/18 03:18:59;;;;;;;3.33;1.77;;;;;;;14.62;66.28;100837.03;4974723;28;20559;-64
2022/07/18 03:21:25;;;;;;;3.93;1.50;;;;;;;14.60;66.21;100833.69;4967521;28;20227;-65
2022/07/18 03:23:50;;;;;;;2.10;1.30;;;;;;;14.60;63.69;100838.84;4981042;28;20195;-59
2022/07/18 03:26:15;;;;;;;2.57;1.60;;;;;;;14.67;64.13;100840.19;4982167;28;20188;-64
2022/07/18 03:28:41;;;;;;;3.97;1.30;;;;;;;14.68;63.61;100840.09;4978590;28;20167;-63
2022/07/18 03:31:06;;;;;;;2.93;1.60;;;;;;;14.71;62.92;100835.66;4962320;28;20729;-66
2022/07/18 03:33:32;;;;;;;4.40;1.67;;;;;;;14.73;62.72;100841.59;4971064;28;20675;-65
2022/07/18 03:35:57;;;;;;;2.53;1.67;;;;;;;14.69;62.38;100835.75;4964396;28;20203;-64
2022/07/18 03:38:22;;;;;;;3.67;1.73;;;;;;;14.69;62.12;100834.00;4967488;28;20187;-66
2022/07/18 03:40:48;;;;;;;2.27;1.50;;;;;;;14.61;63.08;100836.19;4966247;28;20238;-67
2022/07/18 03:43:13;;;;;;;3.60;1.60;;;;;;;14.56;63.55;100839.97;4974262;28;20306;-67
2022/07/18 03:45:38;;;;;;;3.33;1.50;;;;;;;14.53;63.41;100843.56;4987551;28;20241;-66
2022/07/18 03:48:04;;;;;;;3.80;1.40;;;;;;;14.60;63.80;100844.03;4954280;28;20205;-67
2022/07/18 03:50:30;;;;;;;7.23;1.43;;;;;;;14.61;63.64;100841.38;4956129;28;20235;-67
2022/07/18 03:52:55;;;;;;;2.40;1.70;;;;;;;14.57;63.23;100842.47;4984758;28;20211;-67
2022/07/18 03:55:21;;;;;;;2.93;1.70;;;;;;;14.66;63.38;100834.19;4988059;28;20184;-66
2022/07/18 03:57:47;;;;;;;1.93;1.30;;;;;;;14.69;62.76;100833.16;4973011;28;20542;-67
2022/07/18 04:00:13;;;;;;;4.10;1.57;;;;;;;14.81;62.13;100840.19;4958893;28;20275;-67
2022/07/18 04:02:40;;;;;;;5.97;1.50;;;;;;;14.88;61.61;100842.41;4979870;28;20254;-67
2022/07/18 04:05:06;;;;;;;2.00;1.40;;;;;;;14.93;61.35;100842.97;4971821;28;20197;-67
2022/07/18 04:07:31;;;;;;;2.77;1.50;;;;;;;15.03;61.98;100840.66;4967564;28;20421;-67
2022/07/18 04:09:56;;;;;;;2.87;1.70;;;;;;;14.99;62.38;100840.81;4975112;28;20176;-67
2022/07/18 04:12:21;;;;;;;2.47;1.33;;;;;;;15.04;62.56;100837.97;4969111;28;20227;-67
2022/07/18 04:14:47;;;;;;;3.47;1.47;;;;;;;15.01;62.93;100836.38;4976562;28;20185;-67
2022/07/18 04:17:12;;;;;;;6.00;1.30;;;;;;;15.05;63.06;100838.81;4976387;28;20533;-67
2022/07/18 04:19:37;;;;;;;4.60;1.80;;;;;;;15.09;62.38;100837.69;4976628;28;20661;-67
2022/07/18 04:22:03;;;;;;;4.73;1.50;;;;;;;15.17;62.18;100836.28;4981054;28;20321;-67
2022/07/18 04:24:28;;;;;;;5.83;1.40;;;;;;;15.25;60.84;100851.34;4976659;28;20191;-67
2022/07/18 04:26:53;;;;;;;3.23;1.50;;;;;;;15.28;61.06;100848.56;4975999;28;20664;-67
2022/07/18 04:29:19;;;;;;;5.37;1.60;;;;;;;15.36;61.03;100840.31;4990732;28;20192;-67
2022/07/18 04:31:44;;;;;;;2.20;1.37;;;;;;;15.38;62.30;100845.38;4978953;28;20789;-67
2022/07/18 04:34:09;;;;;;;2.77;1.50;;;;;;;15.42;60.39;100842.50;4978050;28;20211;-67
2022/07/18 04:36:35;;;;;;;4.30;1.60;;;;;;;15.47;62.07;100848.25;4976443;28;20699;-67
2022/07/18 04:39:00;;;;;;;2.23;1.57;;;;;;;15.55;61.64;100845.16;4975748;28;20188;-67
2022/07/18 04:41:25;;;;;;;5.17;1.83;;;;;;;15.65;61.50;100841.06;4975878;28;20219;-67
2022/07/18 04:43:51;;;;;;;3.53;1.70;;;;;;;15.67;62.26;100847.91;4971514;28;20240;-67
2022/07/18 04:46:17;;;;;;;2.03;1.30;;;;;;;15.78;62.34;100842.88;4971103;28;20188;-67
2022/07/18 04:48:42;;;;;;;2.67;1.40;;;;;;;15.82;61.63;100844.34;4990144;28;20176;-67
2022/07/18 04:51:07;;;;;;;4.30;1.60;;;;;;;15.89;61.69;100847.38;4974056;28;20667;-67
2022/07/18 04:53:32;;;;;;;3.57;1.80;;;;;;;16.06;61.26;100838.50;4971146;28;20224;-67
2022/07/18 04:55:58;;;;;;;5.53;1.43;;;;;;;16.23;60.48;100847.75;4962366;28;20636;-68
2022/07/18 04:58:23;;;;;;;4.93;1.90;;;;;;;16.34;60.14;100844.44;4972585;28;20670;-67
2022/07/18 05:00:48;;;;;;;5.43;1.90;;;;;;;16.48;60.38;100849.53;4971000;28;20258;-67
2022/07/18 05:03:14;;;;;;;1.70;1.50;;;;;;;16.52;60.33;100851.00;4984312;28;20211;-68
2022/07/18 05:05:39;;;;;;;4.27;1.50;;;;;;;16.59;60.39;100852.22;4971084;28;20249;-67
2022/07/18 05:08:05;;;;;;;6.23;2.10;;;;;;;16.78;59.65;100854.41;4968160;28;20234;-67
2022/07/18 05:10:31;;;;;;;4.80;1.87;;;;;;;16.99;58.58;100850.47;4966999;28;20235;-67
2022/07/18 05:12:57;;;;;;;7.37;2.23;;;;;;;17.20;57.63;100848.94;4986794;28;20295;-67
2022/07/18 05:15:23;;;;;;;7.93;1.63;;;;;;;17.37;57.79;100850.34;4974133;28;20255;-67
2022/07/18 05:17:49;;;;;;;7.67;1.80;;;;;;;17.56;57.87;100849.88;4974062;28;20195;-67
2022/07/18 05:20:17;;;;;;;13.50;1.77;;;;;;;17.74;57.16;100850.31;4966316;28;20188;-67
2022/07/18 05:22:43;;;;;;;12.03;2.77;;;;;;;17.89;54.71;100845.75;4988421;28;20188;-67
2022/07/18 05:25:09;;;;;;;14.43;1.97;;;;;;;18.08;53.52;100841.00;4975437;28;20180;-67
2022/07/18 05:27:35;;;;;;;13.17;2.13;;;;;;;18.22;53.33;100845.97;4961713;28;20191;-67
2022/07/18 05:30:02;;;;;;;14.57;1.80;;;;;;;18.16;53.70;100846.44;4974431;28;20176;-67
2022/07/18 05:32:28;;;;;;;8.87;2.13;;;;;;;18.29;52.99;100852.38;4963678;28;20204;-67
2022/07/18 05:34:53;;;;;;;5.80;1.77;;;;;;;18.28;53.58;100845.50;4975167;28;20188;-67
2022/07/18 05:37:19;;;;;;;7.47;1.80;;;;;;;18.59;52.28;100848.41;4973700;28;20188;-67
2022/07/18 05:39:44;;;;;;;21.77;2.10;;;;;;;18.67;51.94;100851.25;4974928;28;20191;-67
2022/07/18 05:42:09;;;;;;;19.10;2.00;;;;;;;18.95;51.13;100848.31;4979530;28;20235;-67
2022/07/18 05:44:35;;;;;;;7.20;2.03;;;;;;;19.23;49.83;100841.75;4973599;28;20561;-67
2022/07/18 05:47:00;;;;;;;8.73;2.10;;;;;;;19.40;49.81;100842.19;4989612;28;20195;-67
2022/07/18 05:49:26;;;;;;;5.63;1.93;;;;;;;19.51;49.52;100840.38;4972960;28;20635;-67
2022/07/18 05:51:51;;;;;;;11.27;1.90;;;;;;;19.49;47.70;100841.44;4978385;28;20250;-67
2022/07/18 05:54:19;;;;;;;8.40;1.63;;;;;;;19.80;46.60;100838.97;4973065;28;20266;-67
2022/07/18 05:56:49;;;;;;;3.70;1.57;;;;;;;19.90;45.71;100839.88;4974605;28;20184;-67
2022/07/18 05:59:15;;;;;;;7.53;1.63;;;;;;;20.20;45.13;100842.69;4972862;28;20298;-68
2022/07/18 06:01:41;;;;;;;5.03;1.47;;;;;;;20.37;43.73;100839.50;4982539;28;20219;-68
2022/07/18 06:04:06;;;;;;;7.90;1.63;;;;;;;20.61;42.40;100836.56;4977386;28;20251;-67
2022/07/18 06:06:31;;;;;;;6.33;1.53;;;;;;;20.89;41.26;100841.25;4974314;28;20180;-68
2022/07/18 06:08:57;;;;;;;5.03;1.70;;;;;;;21.19;41.02;100839.53;4973783;28;20679;-67
2022/07/18 06:11:22;;;;;;;7.60;1.70;;;;;;;21.39;40.47;100843.00;4962390;28;20627;-67
2022/07/18 06:13:48;;;;;;;6.50;1.77;;;;;;;21.49;40.67;100843.03;4977902;28;20227;-68
2022/07/18 06:16:13;;;;;;;8.10;1.67;;;;;;;21.67;39.56;100845.78;4972629;28;20176;-68
2022/07/18 06:18:38;;;;;;;5.20;1.90;;;;;;;21.82;39.43;100849.66;4973795;28;20188;-67
2022/07/18 06:21:05;;;;;;;2.63;1.57;;;;;;;22.11;37.48;100850.59;4972070;28;20255;-67
2022/07/18 06:23:30;;;;;;;5.40;1.57;;;;;;;22.19;38.34;100848.91;4972916;28;20192;-67
2022/07/18 06:25:57;;;;;;;9.40;3.20;;;;;;;22.08;37.17;100844.66;4974062;28;20243;-67
2022/07/18 06:28:23;;;;;;;8.00;2.93;;;;;;;22.97;36.08;100845.19;4974147;28;20180;-67
2022/07/18 06:30:48;;;;;;;8.60;2.00;;;;;;;23.43;34.49;100836.50;4968952;28;20282;-68
2022/07/18 06:33:13;;;;;;;11.53;2.00;;;;;;;24.28;32.66;100833.38;4988916;28;20208;-67
2022/07/18 06:35:42;;;;;;;6.47;2.03;;;;;;;24.81;32.24;100842.84;4972610;28;20234;-67
2022/07/18 06:38:07;;;;;;;5.10;1.70;;;;;;;24.98;31.67;100832.38;4972485;28;20184;-67
2022/07/18 06:40:32;;;;;;;8.23;2.20;;;;;;;26.09;29.78;100833.78;4964345;28;20581;-68
2022/07/18 06:42:57;;;;;;;4.53;2.13;;;;;;;27.84;27.64;100837.97;4966141;28;20638;-66
2022/07/18 06:45:23;;;;;;;6.15;1.88;;;;;;;28.94;25.69;100835.59;4980749;28;20187;-66
2022/07/18 06:47:48;;;;;;;4.53;1.50;;;;;;;29.68;24.90;100835.50;4973839;28;20172;-66
2022/07/18 06:50:14;;;;;;;15.13;2.70;;;;;;;29.87;24.20;100841.94;4963515;28;20564;-65
2022/07/18 06:52:41;;;;;;;3.38;1.70;;;;;;;31.22;22.66;100842.38;4988498;28;20283;-66
2022/07/18 06:55:08;;;;;;;2.97;1.70;;;;;;;32.42;20.82;100848.63;4973784;28;20259;-66
2022/07/18 06:57:33;;;;;;;3.72;2.15;;;;;;;31.93;21.73;100852.63;4973696;28;20666;-66
2022/07/18 06:59:58;;;;;;;9.23;1.45;;;;;;;32.13;21.13;100844.59;4972923;28;20220;-66
2022/07/18 07:02:24;;;;;;;5.47;1.83;;;;;;;32.81;20.13;100840.72;4952659;28;20595;-66
2022/07/18 07:04:49;;;;;;;10.32;1.67;;;;;;;32.76;20.06;100846.66;4973489;28;20275;-66
2022/07/18 07:07:15;;;;;;;6.45;1.70;;;;;;;33.65;19.19;100848.50;4973637;28;20220;-67
2022/07/18 07:09:40;;;;;;;8.52;2.13;;;;;;;33.93;18.95;100850.72;4988071;28;20180;-66
2022/07/18 07:12:06;;;;;;;9.75;7.15;;;;;;;32.63;19.64;100852.84;4964706;28;20228;-66
2022/07/18 07:14:32;;;;;;;10.30;5.70;;;;;;;32.56;20.41;100851.22;4972116;28;20709;-66
2022/07/18 07:16:57;;;;;;;11.38;4.75;;;;;;;31.05;21.72;100847.22;4965452;28;20292;-66
2022/07/18 07:19:22;;;;;;;15.68;4.22;;;;;;;31.91;20.69;100852.81;4971840;28;20214;-66
2022/07/18 07:21:48;;;;;;;13.68;4.60;;;;;;;32.39;20.49;100854.38;4976438;28;20724;-66
2022/07/18 07:24:13;;;;;;;13.48;4.30;;;;;;;33.24;19.57;100849.84;4974954;28;20192;-66
2022/07/18 07:26:38;;;;;;;11.30;4.88;;;;;;;33.77;18.72;100854.75;4988272;28;20270;-66
2022/07/18 07:29:04;;;;;;;8.23;4.38;;;;;;;34.88;18.10;100848.63;4972518;28;20188;-66
2022/07/18 07:31:29;;;;;;;11.90;3.05;;;;;;;34.44;17.90;100847.94;4945981;28;20234;-66
2022/07/18 07:33:54;;;;;;;6.63;2.35;;;;;;;34.30;17.57;100849.94;4971872;28;20208;-66
2022/07/18 07:36:21;;;;;;;5.80;2.40;;;;;;;34.19;17.90;100842.69;4973143;28;20184;-66
2022/07/18 07:38:46;;;;;;;7.40;2.45;;;;;;;35.07;17.55;100851.22;4972374;28;20263;-67
2022/07/18 07:41:13;;;;;;;7.65;2.20;;;;;;;36.03;16.83;100848.41;4965063;28;20310;-66
2022/07/18 07:43:38;;;;;;;6.10;1.60;;;;;;;33.43;17.80;100845.41;4988009;28;20195;-66
2022/07/18 07:46:04;;;;;;;4.00;1.55;;;;;;;33.93;18.04;100847.25;4973309;28;20188;-66
2022/07/18 07:48:29;;;;;;;5.63;1.85;;;;;;;32.98;18.87;100838.34;4983270;28;20238;-66
2022/07/18 07:50:55;;;;;;;7.82;1.70;;;;;;;34.83;17.37;100837.78;4972882;28;20231;-67
2022/07/18 07:53:20;;;;;;;4.72;1.77;;;;;;;34.59;17.00;100845.69;4968683;28;20231;-67
2022/07/18 07:55:45;;;;;;;5.70;1.73;;;;;;;35.06;17.29;100844.25;4956022;28;20195;-67
2022/07/18 07:58:11;;;;;;;4.35;1.60;;;;;;;35.16;16.00;100830.31;4973143;28;20188;-67
2022/07/18 08:00:37;;;;;;;4.60;1.73;;;;;;;34.30;16.67;100828.56;4967086;28;20246;-66
2022/07/18 08:03:04;;;;;;;5.43;1.98;;;;;;;36.46;15.86;100837.50;4968730;28;20568;-66
2022/07/18 08:05:32;;;;;;;3.78;1.63;;;;;;;36.69;14.56;100844.59;4965708;28;20567;-67
2022/07/18 08:07:59;;;;;;;4.20;1.60;;;;;;;36.04;15.27;100835.81;4973081;28;20224;-67
2022/07/18 08:10:26;;;;;;;4.50;1.27;;;;;;;34.51;15.84;100831.81;4960950;28;20243;-66
2022/07/18 08:12:52;;;;;;;6.45;1.65;;;;;;;33.04;16.84;100824.16;4962865;28;20671;-66
2022/07/18 08:15:17;;;;;;;4.63;1.30;;;;;;;33.82;16.09;100824.78;4971740;28;20188;-67
2022/07/18 08:17:42;;;;;;;4.35;1.67;;;;;;;34.09;16.96;100824.50;4973179;28;20199;-66
2022/07/18 08:20:09;;;;;;;4.57;1.52;;;;;;;36.35;15.55;100823.84;4963235;28;20180;-67
2022/07/18 08:22:34;;;;;;;4.60;1.63;;;;;;;36.88;14.38;100817.59;4987218;28;20184;-67
2022/07/18 08:25:00;;;;;;;3.85;1.50;;;;;;;38.00;13.60;100823.03;4971858;28;20184;-67
2022/07/18 08:27:26;;;;;;;7.43;1.50;;;;;;;38.00;13.79;100823.03;4972874;28;20196;-67
2022/07/18 08:29:51;;;;;;;8.77;1.77;;;;;;;39.35;11.95;100825.19;4972901;28;20627;-67
2022/07/18 08:32:16;;;;;;;2.25;1.15;;;;;;;37.10;13.22;100823.06;4963039;28;20231;-66
2022/07/18 08:34:41;;;;;;;7.07;1.42;;;;;;;39.35;12.95;100825.19;4971735;28;20266;-66
2022/07/18 08:37:07;;;;;;;7.93;1.73;;;;;;;41.06;11.23;100821.97;4973077;28;20212;-67
2022/07/18 08:39:32;;;;;;;4.20;1.50;;;;;;;40.63;10.70;100824.09;4972441;28;20184;-67
2022/07/18 08:42:00;;;;;;;12.82;2.03;;;;;;;39.86;11.91;100824.66;4976870;28;20261;-67
2022/07/18 08:44:28;;;;;;;3.45;1.52;;;;;;;38.24;14.12;100810.16;4973445;28;20188;-67
2022/07/18 08:46:57;;;;;;;5.57;1.52;;;;;;;38.16;13.07;100812.50;4971653;28;20590;-67
2022/07/18 08:49:22;;;;;;;5.60;1.73;;;;;;;39.38;12.68;100814.72;4973231;28;20481;-67
2022/07/18 08:51:47;;;;;;;3.88;1.42;;;;;;;40.41;12.29;100827.81;4979419;28;20227;-66
2022/07/18 08:54:13;;;;;;;6.38;1.63;;;;;;;40.00;12.45;100815.00;4977727;28;20222;-66
2022/07/18 08:56:38;;;;;;;2.30;1.27;;;;;;;40.42;11.92;100815.16;4974592;28;20176;-67
2022/07/18 08:59:04;;;;;;;3.92;1.42;;;;;;;39.67;12.14;100818.91;4976062;28;20179;-66
2022/07/18 09:01:30;;;;;;;7.43;1.80;;;;;;;39.12;12.59;100816.38;4976903;28;20227;-66
2022/07/18 09:06:52;;;;;;;3.83;1.40;;;;;;;38.66;12.43;100806.03;4975838;28;20199;-66
2022/07/18 09:09:18;;;;;;;6.53;1.27;;;;;;;38.28;12.50;100805.09;4975790;28;20195;-66
2022/07/18 09:12:02;;;;;;;6.90;1.27;;;;;;;36.46;13.92;100810.69;4964780;28;20236;-66
2022/07/18 09:14:42;;;;;;;3.55;1.52;;;;;;;38.84;11.97;100806.75;4976116;28;20204;-66
2022/07/18 09:17:12;;;;;;;4.90;1.60;;;;;;;36.78;13.85;100802.97;4990757;28;20184;-66
2022/07/18 09:19:41;;;;;;;4.72;1.48;;;;;;;39.95;12.29;100812.28;4975313;28;20259;-66
2022/07/18 09:22:14;;;;;;;3.97;1.60;;;;;;;40.00;11.99;100806.94;4980425;28;20238;-67
2022/07/18 09:24:53;;;;;;;4.03;1.60;;;;;;;39.14;11.89;100800.00;4975316;28;20219;-66
2022/07/18 09:27:27;;;;;;;7.28;2.55;;;;;;;40.30;10.81;100808.13;4975538;28;20184;-66
2022/07/18 09:30:11;;;;;;;6.82;1.48;;;;;;;40.63;11.64;100806.03;4975015;28;20216;-66
2022/07/18 09:32:38;;;;;;;5.18;1.77;;;;;;;40.31;11.67;100808.94;4964873;28;20219;-66
2022/07/18 09:35:11;;;;;;;7.88;1.10;;;;;;;41.11;10.39;100805.78;4975583;28;20188;-66
2022/07/18 09:37:36;;;;;;;4.35;1.27;;;;;;;41.96;10.42;100808.00;4975708;28;20275;-66
2022/07/18 09:40:26;;;;;;;4.05;1.58;;;;;;;42.64;10.12;100803.78;4974761;28;20259;-66
2022/07/18 09:42:56;;;;;;;3.60;1.30;;;;;;;43.62;9.55;100800.16;4964710;28;20299;-67
2022/07/18 09:45:23;;;;;;;2.22;1.30;;;;;;;43.47;9.25;100804.63;4975322;28;20203;-67
2022/07/18 09:47:57;;;;;;;8.60;1.55;;;;;;;43.72;8.93;100810.84;4990349;28;20175;-66
2022/07/18 09:50:53;;;;;;;7.13;1.33;;;;;;;43.35;9.90;100804.22;4982145;28;20234;-67
2022/07/18 09:53:29;;;;;;;5.93;1.60;;;;;;;42.47;9.81;100796.88;4982125;28;20211;-66
2022/07/18 09:56:00;;;;;;;3.30;1.45;;;;;;;41.23;10.56;100797.38;4967373;28;20195;-67
2022/07/18 09:58:30;;;;;;;1.95;1.25;;;;;;;41.76;10.28;100798.88;4972870;28;20671;-67
2022/07/18 10:00:58;;;;;;;3.45;1.50;;;;;;;41.13;9.86;100798.22;4968811;28;20226;-66
2022/07/18 10:03:24;;;;;;;4.72;1.25;;;;;;;41.92;9.92;100791.53;4965277;28;20375;-66
2022/07/18 10:05:51;;;;;;;3.75;1.20;;;;;;;41.06;10.48;100794.16;4972680;28;20857;-66
2022/07/18 10:08:18;;;;;;;2.42;1.25;;;;;;;37.78;12.18;100788.94;4972387;28;20332;-66
2022/07/18 10:10:46;;;;;;;2.28;1.20;;;;;;;40.85;11.30;100794.19;4967645;28;20231;-66
2022/07/18 10:13:12;;;;;;;3.33;1.67;;;;;;;42.16;11.24;100790.84;4966464;28;20208;-66
2022/07/18 10:15:40;;;;;;;3.80;1.30;;;;;;;42.81;10.25;100795.25;4972349;28;20192;-67
2022/07/18 10:18:08;;;;;;;2.17;1.33;;;;;;;41.68;9.90;100788.63;4972334;28;20274;-67
2022/07/18 10:20:47;;;;;;;3.53;1.25;;;;;;;41.96;9.40;100792.56;4966214;28;20237;-67
2022/07/18 10:23:24;;;;;;;8.43;1.48;;;;;;;41.30;9.78;100794.41;4982302;28;20570;-66
2022/07/18 10:26:15;;;;;;;2.95;1.30;;;;;;;38.56;11.25;100784.44;4972147;28;20263;-66
2022/07/18 10:28:55;;;;;;;2.05;1.15;;;;;;;39.25;11.01;100785.56;4971238;28;20313;-66
2022/07/18 10:31:28;;;;;;;7.25;1.23;;;;;;;40.09;10.86;100795.66;4974275;28;20261;-66
2022/07/18 10:34:09;;;;;;;1.63;1.10;;;;;;;40.37;10.73;100790.91;4978860;28;20196;-66
2022/07/18 10:36:36;;;;;;;1.30;1.05;;;;;;;39.58;11.00;100793.53;4969705;28;20188;-66
2022/07/18 10:39:13;;;;;;;2.95;1.08;;;;;;;41.14;9.46;100780.13;4966325;28;20195;-66
2022/07/18 10:41:38;;;;;;;2.35;1.20;;;;;;;40.12;11.21;100790.56;4976546;28;20670;-66
2022/07/18 10:44:23;;;;;;;4.93;1.40;;;;;;;41.27;10.31;100787.66;4976930;28;20195;-67
2022/07/18 10:47:03;;;;;;;3.42;1.40;;;;;;;41.41;9.91;100782.50;4972837;28;20419;-67
2022/07/18 10:49:57;;;;;;;1.60;0.95;;;;;;;37.58;11.80;100775.25;4971870;28;20246;-67
2022/07/18 10:52:23;;;;;;;5.10;3.72;;;;;;;35.74;14.49;100775.22;4978780;28;20230;-66
2022/07/18 10:55:06;;;;;;;3.87;1.17;;;;;;;34.78;15.03;100762.81;4971370;28;20216;-66
2022/07/18 10:57:33;;;;;;;1.73;1.10;;;;;;;33.55;14.65;100761.00;4973946;28;20901;-66
2022/07/18 11:00:26;;;;;;;3.45;1.27;;;;;;;33.22;15.75;100755.94;4987758;28;20271;-66
2022/07/18 11:03:01;;;;;;;6.05;1.38;;;;;;;32.74;15.35;100750.13;4936829;28;20254;-66
2022/07/18 11:05:26;;;;;;;3.30;1.20;;;;;;;31.91;16.56;100743.75;4974592;28;20175;-66
2022/07/18 11:07:58;;;;;;;3.38;1.58;;;;;;;31.59;17.27;100738.28;4971799;28;20229;-66
2022/07/18 11:10:41;;;;;;;1.92;1.10;;;;;;;31.87;18.50;100730.06;4964798;28;20292;-67
2022/07/18 11:13:25;;;;;;;3.38;1.25;;;;;;;32.31;19.10;100734.81;4983183;28;20282;-66
2022/07/18 11:16:04;;;;;;;1.65;1.38;;;;;;;32.50;18.44;100733.09;4970036;28;20282;-67
2022/07/18 11:18:31;;;;;;;4.25;1.23;;;;;;;32.46;17.25;100727.38;4981102;28;20192;-67
2022/07/18 11:20:57;;;;;;;1.90;1.25;;;;;;;32.53;17.28;100729.19;4970259;28;20258;-67
2022/07/18 11:23:25;;;;;;;2.17;1.10;;;;;;;32.74;16.52;100725.38;4968941;28;20196;-67
2022/07/18 11:25:56;;;;;;;5.10;1.13;;;;;;;32.35;16.66;100728.06;4987074;28;20181;-67
2022/07/18 11:28:23;;;;;;;3.22;1.48;;;;;;;31.77;17.17;100721.72;4952901;28;20180;-68
2022/07/18 11:31:09;;;;;;;1.65;1.25;;;;;;;31.58;17.02;100717.22;4947477;28;20219;-67